sensor_id;sensor_type;location;lat;lon;timestamp;temperature;humidity
25440;DHT22;13365;52.208;5.488;2023-09-19T00:01:07;19.80;99.30
25440;DHT22;13365;52.208;5.488;2023-09-19T00:03:34;19.80;99.10
25440;DHT22;13365;52.208;5.488;2023-09-19T00:06:03;19.80;99.10
25440;DHT22;13365;52.208;5.488;2023-09-19T00:08:28;19.80;99.20
25440;DHT22;13365;52.208;5.488;2023-09-19T00:10:54;19.80;99.10
25440;DHT22;13365;52.208;5.488;2023-09-19T00:13:20;19.70;99.10
25440;DHT22;13365;52.208;5.488;2023-09-19T00:15:47;19.60;99.30
25440;DHT22;13365;52.208;5.488;2023-09-19T00:18:18;19.60;99.30
25440;DHT22;13365;52.208;5.488;2023-09-19T00:20:46;19.40;99.40
25440;DHT22;13365;52.208;5.488;2023-09-19T00:23:13;19.40;99.60
25440;DHT22;13365;52.208;5.488;2023-09-19T00:25:39;19.40;99.70
25440;DHT22;13365;52.208;5.488;2023-09-19T00:28:07;19.30;99.60
25440;DHT22;13365;52.208;5.488;2023-09-19T00:30:36;19.40;99.60
25440;DHT22;13365;52.208;5.488;2023-09-19T00:33:03;19.30;99.70
25440;DHT22;13365;52.208;5.488;2023-09-19T00:35:31;19.20;99.90
25440;DHT22;13365;52.208;5.488;2023-09-19T00:37:56;19.20;99.80
25440;DHT22;13365;52.208;5.488;2023-09-19T00:40:22;19.20;99.90
25440;DHT22;13365;52.208;5.488;2023-09-19T00:42:48;19.20;99.90
25440;DHT22;13365;52.208;5.488;2023-09-19T00:45:16;19.20;99.90
25440;DHT22;13365;52.208;5.488;2023-09-19T00:47:44;19.10;99.90
25440;DHT22;13365;52.208;5.488;2023-09-19T00:50:11;19.10;99.90
25440;DHT22;13365;52.208;5.488;2023-09-19T00:52:40;19.10;99.90
25440;DHT22;13365;52.208;5.488;2023-09-19T00:55:08;19.20;99.90
25440;DHT22;13365;52.208;5.488;2023-09-19T00:57:35;19.30;99.90
25440;DHT22;13365;52.208;5.488;2023-09-19T01:00:02;19.40;99.90
25440;DHT22;13365;52.208;5.488;2023-09-19T01:02:32;19.40;99.70
25440;DHT22;13365;52.208;5.488;2023-09-19T01:04:59;19.30;99.80
25440;DHT22;13365;52.208;5.488;2023-09-19T01:07:25;19.40;99.60
25440;DHT22;13365;52.208;5.488;2023-09-19T01:09:51;19.30;99.60
25440;DHT22;13365;52.208;5.488;2023-09-19T01:12:23;19.30;99.80
25440;DHT22;13365;52.208;5.488;2023-09-19T01:14:57;19.30;99.70
25440;DHT22;13365;52.208;5.488;2023-09-19T01:17:45;19.30;99.70
25440;DHT22;13365;52.208;5.488;2023-09-19T01:20:26;19.30;99.60
25440;DHT22;13365;52.208;5.488;2023-09-19T01:26:07;19.20;99.90
25440;DHT22;13365;52.208;5.488;2023-09-19T01:29:01;19.30;99.80
25440;DHT22;13365;52.208;5.488;2023-09-19T01:31:34;19.30;99.80
25440;DHT22;13365;52.208;5.488;2023-09-19T01:34:03;19.20;99.60
25440;DHT22;13365;52.208;5.488;2023-09-19T01:36:34;19.20;99.90
25440;DHT22;13365;52.208;5.488;2023-09-19T01:39:06;19.20;99.80
25440;DHT22;13365;52.208;5.488;2023-09-19T01:42:05;19.20;99.90
25440;DHT22;13365;52.208;5.488;2023-09-19T01:45:05;19.20;99.70
25440;DHT22;13365;52.208;5.488;2023-09-19T01:47:37;19.10;99.80
25440;DHT22;13365;52.208;5.488;2023-09-19T01:50:27;19.10;99.80
25440;DHT22;13365;52.208;5.488;2023-09-19T01:52:59;19.20;99.70
25440;DHT22;13365;52.208;5.488;2023-09-19T01:55:29;19.30;99.80
25440;DHT22;13365;52.208;5.488;2023-09-19T01:58:06;19.20;99.90
25440;DHT22;13365;52.208;5.488;2023-09-19T02:00:35;19.20;99.90
25440;DHT22;13365;52.208;5.488;2023-09-19T02:03:03;19.10;99.90
25440;DHT22;13365;52.208;5.488;2023-09-19T02:05:29;19.10;99.90
25440;DHT22;13365;52.208;5.488;2023-09-19T02:07:55;19.20;99.90
25440;DHT22;13365;52.208;5.488;2023-09-19T02:10:22;19.10;99.90
25440;DHT22;13365;52.208;5.488;2023-09-19T02:12:48;19.10;99.90
25440;DHT22;13365;52.208;5.488;2023-09-19T02:15:14;19.10;99.90
25440;DHT22;13365;52.208;5.488;2023-09-19T02:17:42;19.10;99.90
25440;DHT22;13365;52.208;5.488;2023-09-19T02:20:08;18.90;99.90
25440;DHT22;13365;52.208;5.488;2023-09-19T02:22:35;18.80;99.90
25440;DHT22;13365;52.208;5.488;2023-09-19T02:25:01;18.80;99.90
25440;DHT22;13365;52.208;5.488;2023-09-19T02:27:30;18.80;99.90
25440;DHT22;13365;52.208;5.488;2023-09-19T02:29:56;18.80;99.90
25440;DHT22;13365;52.208;5.488;2023-09-19T02:32:21;18.80;99.90
25440;DHT22;13365;52.208;5.488;2023-09-19T02:34:48;18.80;99.90
25440;DHT22;13365;52.208;5.488;2023-09-19T02:37:14;18.90;99.90
25440;DHT22;13365;52.208;5.488;2023-09-19T02:39:41;18.90;99.90
25440;DHT22;13365;52.208;5.488;2023-09-19T02:42:07;18.90;99.90
25440;DHT22;13365;52.208;5.488;2023-09-19T02:44:32;19.00;99.90
25440;DHT22;13365;52.208;5.488;2023-09-19T02:46:59;19.00;99.90
25440;DHT22;13365;52.208;5.488;2023-09-19T02:49:24;18.80;99.90
25440;DHT22;13365;52.208;5.488;2023-09-19T02:51:50;18.70;99.90
25440;DHT22;13365;52.208;5.488;2023-09-19T02:54:16;18.80;99.90
25440;DHT22;13365;52.208;5.488;2023-09-19T02:56:42;18.80;99.90
25440;DHT22;13365;52.208;5.488;2023-09-19T02:59:08;18.70;99.90
25440;DHT22;13365;52.208;5.488;2023-09-19T03:01:35;18.70;99.90
25440;DHT22;13365;52.208;5.488;2023-09-19T03:04:02;18.60;99.90
25440;DHT22;13365;52.208;5.488;2023-09-19T03:06:28;18.70;99.90
25440;DHT22;13365;52.208;5.488;2023-09-19T03:08:56;18.70;99.90
25440;DHT22;13365;52.208;5.488;2023-09-19T03:11:22;18.60;99.90
25440;DHT22;13365;52.208;5.488;2023-09-19T03:13:54;18.60;99.90
25440;DHT22;13365;52.208;5.488;2023-09-19T03:16:20;18.50;99.90
25440;DHT22;13365;52.208;5.488;2023-09-19T03:18:47;18.30;99.90
25440;DHT22;13365;52.208;5.488;2023-09-19T03:21:14;18.30;99.90
25440;DHT22;13365;52.208;5.488;2023-09-19T03:23:40;18.30;99.90
25440;DHT22;13365;52.208;5.488;2023-09-19T03:26:06;18.20;99.90
25440;DHT22;13365;52.208;5.488;2023-09-19T03:28:33;18.20;99.90
25440;DHT22;13365;52.208;5.488;2023-09-19T03:31:03;18.20;99.90
25440;DHT22;13365;52.208;5.488;2023-09-19T03:33:29;18.20;99.90
25440;DHT22;13365;52.208;5.488;2023-09-19T03:35:57;18.30;99.60
25440;DHT22;13365;52.208;5.488;2023-09-19T03:38:24;18.20;99.60
25440;DHT22;13365;52.208;5.488;2023-09-19T03:40:50;18.10;99.50
25440;DHT22;13365;52.208;5.488;2023-09-19T03:43:16;17.90;99.80
25440;DHT22;13365;52.208;5.488;2023-09-19T03:45:42;17.80;99.90
25440;DHT22;13365;52.208;5.488;2023-09-19T03:48:11;17.80;99.90
25440;DHT22;13365;52.208;5.488;2023-09-19T03:50:36;17.70;99.90
25440;DHT22;13365;52.208;5.488;2023-09-19T03:53:02;17.60;99.90
25440;DHT22;13365;52.208;5.488;2023-09-19T03:55:28;17.60;99.90
25440;DHT22;13365;52.208;5.488;2023-09-19T03:57:56;17.60;99.90
25440;DHT22;13365;52.208;5.488;2023-09-19T04:00:22;17.50;99.90
25440;DHT22;13365;52.208;5.488;2023-09-19T04:02:52;17.50;99.90
25440;DHT22;13365;52.208;5.488;2023-09-19T04:05:18;17.50;99.90
25440;DHT22;13365;52.208;5.488;2023-09-19T04:07:43;17.70;99.50
25440;DHT22;13365;52.208;5.488;2023-09-19T04:10:09;17.70;99.50
25440;DHT22;13365;52.208;5.488;2023-09-19T04:12:37;17.70;99.00
25440;DHT22;13365;52.208;5.488;2023-09-19T04:15:02;17.50;99.20
25440;DHT22;13365;52.208;5.488;2023-09-19T04:17:28;17.50;99.30
25440;DHT22;13365;52.208;5.488;2023-09-19T04:19:54;17.40;99.30
25440;DHT22;13365;52.208;5.488;2023-09-19T04:22:19;17.50;99.10
25440;DHT22;13365;52.208;5.488;2023-09-19T04:24:45;17.50;98.90
25440;DHT22;13365;52.208;5.488;2023-09-19T04:27:10;17.40;99.30
25440;DHT22;13365;52.208;5.488;2023-09-19T04:29:37;17.50;99.10
25440;DHT22;13365;52.208;5.488;2023-09-19T04:32:04;17.60;98.90
25440;DHT22;13365;52.208;5.488;2023-09-19T04:34:31;17.50;99.00
25440;DHT22;13365;52.208;5.488;2023-09-19T04:36:57;17.60;98.70
25440;DHT22;13365;52.208;5.488;2023-09-19T04:39:23;17.60;98.60
25440;DHT22;13365;52.208;5.488;2023-09-19T04:41:51;17.70;98.50
25440;DHT22;13365;52.208;5.488;2023-09-19T04:44:16;17.60;98.40
25440;DHT22;13365;52.208;5.488;2023-09-19T04:46:43;17.60;98.40
25440;DHT22;13365;52.208;5.488;2023-09-19T04:49:09;17.70;98.40
25440;DHT22;13365;52.208;5.488;2023-09-19T04:51:36;17.70;97.90
25440;DHT22;13365;52.208;5.488;2023-09-19T04:54:02;17.60;98.10
25440;DHT22;13365;52.208;5.488;2023-09-19T04:56:28;17.60;97.80
25440;DHT22;13365;52.208;5.488;2023-09-19T04:58:57;17.50;97.80
25440;DHT22;13365;52.208;5.488;2023-09-19T05:01:24;17.50;98.00
25440;DHT22;13365;52.208;5.488;2023-09-19T05:03:49;17.50;98.10
25440;DHT22;13365;52.208;5.488;2023-09-19T05:06:21;17.50;98.10
25440;DHT22;13365;52.208;5.488;2023-09-19T05:08:50;17.40;97.60
25440;DHT22;13365;52.208;5.488;2023-09-19T05:11:19;17.40;98.00
25440;DHT22;13365;52.208;5.488;2023-09-19T05:13:45;17.30;98.10
25440;DHT22;13365;52.208;5.488;2023-09-19T05:16:11;17.40;98.00
25440;DHT22;13365;52.208;5.488;2023-09-19T05:18:36;17.30;97.80
25440;DHT22;13365;52.208;5.488;2023-09-19T05:21:02;17.30;97.90
25440;DHT22;13365;52.208;5.488;2023-09-19T05:23:28;17.30;98.50
25440;DHT22;13365;52.208;5.488;2023-09-19T05:25:54;17.30;98.00
25440;DHT22;13365;52.208;5.488;2023-09-19T05:28:20;17.20;98.40
25440;DHT22;13365;52.208;5.488;2023-09-19T05:30:45;17.20;98.40
25440;DHT22;13365;52.208;5.488;2023-09-19T05:33:12;17.30;98.30
25440;DHT22;13365;52.208;5.488;2023-09-19T05:35:38;17.20;98.30
25440;DHT22;13365;52.208;5.488;2023-09-19T05:38:05;17.30;98.50
25440;DHT22;13365;52.208;5.488;2023-09-19T05:40:34;17.20;98.50
25440;DHT22;13365;52.208;5.488;2023-09-19T05:43:00;17.20;98.50
25440;DHT22;13365;52.208;5.488;2023-09-19T05:45:26;17.20;98.80
25440;DHT22;13365;52.208;5.488;2023-09-19T05:47:53;17.10;98.60
25440;DHT22;13365;52.208;5.488;2023-09-19T05:50:29;17.10;98.90
25440;DHT22;13365;52.208;5.488;2023-09-19T05:52:55;17.20;98.90
25440;DHT22;13365;52.208;5.488;2023-09-19T05:55:21;17.30;98.80
25440;DHT22;13365;52.208;5.488;2023-09-19T05:57:53;17.20;99.10
25440;DHT22;13365;52.208;5.488;2023-09-19T06:00:20;17.30;98.90
25440;DHT22;13365;52.208;5.488;2023-09-19T06:02:55;17.40;99.20
25440;DHT22;13365;52.208;5.488;2023-09-19T06:05:21;17.40;99.00
25440;DHT22;13365;52.208;5.488;2023-09-19T06:07:47;17.30;98.90
25440;DHT22;13365;52.208;5.488;2023-09-19T06:10:13;17.40;99.10
25440;DHT22;13365;52.208;5.488;2023-09-19T06:12:41;17.40;99.00
25440;DHT22;13365;52.208;5.488;2023-09-19T06:15:09;17.50;99.10
25440;DHT22;13365;52.208;5.488;2023-09-19T06:17:45;17.60;99.10
25440;DHT22;13365;52.208;5.488;2023-09-19T06:20:11;17.60;98.80
25440;DHT22;13365;52.208;5.488;2023-09-19T06:22:40;17.50;99.00
25440;DHT22;13365;52.208;5.488;2023-09-19T06:25:07;17.50;99.10
25440;DHT22;13365;52.208;5.488;2023-09-19T06:27:32;17.60;99.00
25440;DHT22;13365;52.208;5.488;2023-09-19T06:29:58;17.70;99.00
25440;DHT22;13365;52.208;5.488;2023-09-19T06:32:27;17.80;98.80
25440;DHT22;13365;52.208;5.488;2023-09-19T06:34:53;17.70;98.80
25440;DHT22;13365;52.208;5.488;2023-09-19T06:37:20;17.90;98.60
25440;DHT22;13365;52.208;5.488;2023-09-19T06:39:46;17.90;98.50
25440;DHT22;13365;52.208;5.488;2023-09-19T06:42:13;17.80;98.40
25440;DHT22;13365;52.208;5.488;2023-09-19T06:44:39;17.90;98.50
25440;DHT22;13365;52.208;5.488;2023-09-19T06:47:04;18.00;98.50
25440;DHT22;13365;52.208;5.488;2023-09-19T06:49:32;18.00;98.50
25440;DHT22;13365;52.208;5.488;2023-09-19T06:51:59;18.10;98.20
25440;DHT22;13365;52.208;5.488;2023-09-19T06:54:24;18.10;98.50
25440;DHT22;13365;52.208;5.488;2023-09-19T06:56:49;18.20;98.20
25440;DHT22;13365;52.208;5.488;2023-09-19T06:59:15;18.20;98.50
25440;DHT22;13365;52.208;5.488;2023-09-19T07:01:41;18.10;98.50
25440;DHT22;13365;52.208;5.488;2023-09-19T07:04:09;18.10;98.80
25440;DHT22;13365;52.208;5.488;2023-09-19T07:06:35;18.10;98.90
25440;DHT22;13365;52.208;5.488;2023-09-19T07:09:01;18.00;99.10
25440;DHT22;13365;52.208;5.488;2023-09-19T07:11:26;18.20;99.10
25440;DHT22;13365;52.208;5.488;2023-09-19T07:13:52;18.10;99.20
25440;DHT22;13365;52.208;5.488;2023-09-19T07:16:17;18.10;99.40
25440;DHT22;13365;52.208;5.488;2023-09-19T07:18:53;18.20;99.40
25440;DHT22;13365;52.208;5.488;2023-09-19T07:21:18;18.30;99.60
25440;DHT22;13365;52.208;5.488;2023-09-19T07:23:44;18.50;99.70
25440;DHT22;13365;52.208;5.488;2023-09-19T07:26:09;18.60;99.40
25440;DHT22;13365;52.208;5.488;2023-09-19T07:28:35;18.60;99.60
25440;DHT22;13365;52.208;5.488;2023-09-19T07:31:02;18.70;99.20
25440;DHT22;13365;52.208;5.488;2023-09-19T07:33:32;18.80;99.10
25440;DHT22;13365;52.208;5.488;2023-09-19T07:35:57;19.10;99.00
25440;DHT22;13365;52.208;5.488;2023-09-19T07:38:24;19.10;98.70
25440;DHT22;13365;52.208;5.488;2023-09-19T07:40:50;19.30;98.40
25440;DHT22;13365;52.208;5.488;2023-09-19T07:43:15;19.20;98.30
25440;DHT22;13365;52.208;5.488;2023-09-19T07:45:41;19.30;98.10
25440;DHT22;13365;52.208;5.488;2023-09-19T07:48:07;19.40;98.40
25440;DHT22;13365;52.208;5.488;2023-09-19T07:50:39;19.50;97.90
25440;DHT22;13365;52.208;5.488;2023-09-19T07:53:05;19.70;98.10
25440;DHT22;13365;52.208;5.488;2023-09-19T07:55:31;19.50;97.60
25440;DHT22;13365;52.208;5.488;2023-09-19T07:57:59;19.60;97.70
25440;DHT22;13365;52.208;5.488;2023-09-19T08:00:24;19.40;98.20
25440;DHT22;13365;52.208;5.488;2023-09-19T08:02:50;19.60;97.80
25440;DHT22;13365;52.208;5.488;2023-09-19T08:05:17;19.50;97.70
25440;DHT22;13365;52.208;5.488;2023-09-19T08:07:45;19.60;98.10
25440;DHT22;13365;52.208;5.488;2023-09-19T08:10:14;19.80;98.00
25440;DHT22;13365;52.208;5.488;2023-09-19T08:12:41;19.80;97.80
25440;DHT22;13365;52.208;5.488;2023-09-19T08:15:18;19.80;98.10
25440;DHT22;13365;52.208;5.488;2023-09-19T08:17:44;19.90;97.80
25440;DHT22;13365;52.208;5.488;2023-09-19T08:20:11;20.00;97.70
25440;DHT22;13365;52.208;5.488;2023-09-19T08:22:51;20.00;97.00
25440;DHT22;13365;52.208;5.488;2023-09-19T08:25:20;20.00;97.70
25440;DHT22;13365;52.208;5.488;2023-09-19T08:27:47;20.20;97.20
25440;DHT22;13365;52.208;5.488;2023-09-19T08:30:19;20.30;97.40
25440;DHT22;13365;52.208;5.488;2023-09-19T08:32:56;20.40;97.00
25440;DHT22;13365;52.208;5.488;2023-09-19T08:35:23;20.50;97.00
25440;DHT22;13365;52.208;5.488;2023-09-19T08:37:49;20.70;96.70
25440;DHT22;13365;52.208;5.488;2023-09-19T08:40:14;20.60;96.60
25440;DHT22;13365;52.208;5.488;2023-09-19T08:42:55;20.60;96.70
25440;DHT22;13365;52.208;5.488;2023-09-19T08:45:22;20.70;96.50
25440;DHT22;13365;52.208;5.488;2023-09-19T08:48:17;20.70;96.30
25440;DHT22;13365;52.208;5.488;2023-09-19T08:51:03;21.00;96.50
25440;DHT22;13365;52.208;5.488;2023-09-19T08:53:41;21.20;96.00
25440;DHT22;13365;52.208;5.488;2023-09-19T08:56:10;21.10;95.20
25440;DHT22;13365;52.208;5.488;2023-09-19T09:01:16;21.10;94.90
25440;DHT22;13365;52.208;5.488;2023-09-19T09:03:42;21.00;96.00
25440;DHT22;13365;52.208;5.488;2023-09-19T09:06:14;21.20;95.50
25440;DHT22;13365;52.208;5.488;2023-09-19T09:08:42;21.30;95.30
25440;DHT22;13365;52.208;5.488;2023-09-19T09:11:08;21.30;95.60
25440;DHT22;13365;52.208;5.488;2023-09-19T09:13:35;21.40;95.60
25440;DHT22;13365;52.208;5.488;2023-09-19T09:16:01;21.50;95.50
25440;DHT22;13365;52.208;5.488;2023-09-19T09:18:28;21.50;95.10
25440;DHT22;13365;52.208;5.488;2023-09-19T09:20:55;21.70;95.00
25440;DHT22;13365;52.208;5.488;2023-09-19T09:23:21;21.90;94.30
25440;DHT22;13365;52.208;5.488;2023-09-19T09:25:54;21.90;93.90
25440;DHT22;13365;52.208;5.488;2023-09-19T09:28:25;21.90;92.90
25440;DHT22;13365;52.208;5.488;2023-09-19T09:30:52;21.90;92.90
25440;DHT22;13365;52.208;5.488;2023-09-19T09:33:18;22.00;93.30
25440;DHT22;13365;52.208;5.488;2023-09-19T09:36:00;21.90;92.50
25440;DHT22;13365;52.208;5.488;2023-09-19T09:38:46;21.70;93.00
25440;DHT22;13365;52.208;5.488;2023-09-19T09:41:15;21.60;93.40
25440;DHT22;13365;52.208;5.488;2023-09-19T09:43:52;21.70;93.20
25440;DHT22;13365;52.208;5.488;2023-09-19T09:46:20;21.60;93.20
25440;DHT22;13365;52.208;5.488;2023-09-19T09:48:46;21.50;93.20
25440;DHT22;13365;52.208;5.488;2023-09-19T09:51:32;21.60;93.50
25440;DHT22;13365;52.208;5.488;2023-09-19T09:54:18;21.50;93.60
25440;DHT22;13365;52.208;5.488;2023-09-19T09:57:00;21.50;94.00
25440;DHT22;13365;52.208;5.488;2023-09-19T10:02:18;21.50;94.20
25440;DHT22;13365;52.208;5.488;2023-09-19T10:04:54;21.60;95.00
25440;DHT22;13365;52.208;5.488;2023-09-19T10:07:35;21.70;93.50
25440;DHT22;13365;52.208;5.488;2023-09-19T10:10:07;21.70;94.20
25440;DHT22;13365;52.208;5.488;2023-09-19T10:12:55;21.90;94.00
25440;DHT22;13365;52.208;5.488;2023-09-19T10:15:32;22.00;92.80
25440;DHT22;13365;52.208;5.488;2023-09-19T10:18:00;21.80;93.90
25440;DHT22;13365;52.208;5.488;2023-09-19T10:20:28;21.70;93.40
25440;DHT22;13365;52.208;5.488;2023-09-19T10:23:09;21.80;94.00
25440;DHT22;13365;52.208;5.488;2023-09-19T10:25:38;22.10;93.90
25440;DHT22;13365;52.208;5.488;2023-09-19T10:28:09;21.90;92.80
25440;DHT22;13365;52.208;5.488;2023-09-19T10:30:41;21.60;93.10
25440;DHT22;13365;52.208;5.488;2023-09-19T10:33:11;21.50;93.90
25440;DHT22;13365;52.208;5.488;2023-09-19T10:35:43;21.50;94.00
25440;DHT22;13365;52.208;5.488;2023-09-19T10:38:10;21.70;94.40
25440;DHT22;13365;52.208;5.488;2023-09-19T10:40:37;22.00;94.10
25440;DHT22;13365;52.208;5.488;2023-09-19T10:43:12;22.10;93.90
25440;DHT22;13365;52.208;5.488;2023-09-19T10:45:38;22.20;93.00
25440;DHT22;13365;52.208;5.488;2023-09-19T10:48:06;22.30;93.30
25440;DHT22;13365;52.208;5.488;2023-09-19T10:53:21;22.60;92.10
25440;DHT22;13365;52.208;5.488;2023-09-19T10:55:54;22.60;92.10
25440;DHT22;13365;52.208;5.488;2023-09-19T10:58:29;22.40;91.90
25440;DHT22;13365;52.208;5.488;2023-09-19T11:00:56;22.30;92.10
25440;DHT22;13365;52.208;5.488;2023-09-19T11:03:23;22.30;92.70
25440;DHT22;13365;52.208;5.488;2023-09-19T11:06:23;22.40;92.40
25440;DHT22;13365;52.208;5.488;2023-09-19T11:11:41;22.70;92.30
25440;DHT22;13365;52.208;5.488;2023-09-19T11:14:16;22.60;92.20
25440;DHT22;13365;52.208;5.488;2023-09-19T11:28:28;22.50;91.40
25440;DHT22;13365;52.208;5.488;2023-09-19T11:30:56;22.30;92.50
25440;DHT22;13365;52.208;5.488;2023-09-19T11:33:28;22.40;92.70
25440;DHT22;13365;52.208;5.488;2023-09-19T11:36:14;22.50;93.30
25440;DHT22;13365;52.208;5.488;2023-09-19T11:43:51;22.80;92.50
25440;DHT22;13365;52.208;5.488;2023-09-19T11:46:19;22.90;91.40
25440;DHT22;13365;52.208;5.488;2023-09-19T11:48:48;22.80;91.80
25440;DHT22;13365;52.208;5.488;2023-09-19T11:51:19;22.90;92.50
25440;DHT22;13365;52.208;5.488;2023-09-19T11:53:47;22.90;92.10
25440;DHT22;13365;52.208;5.488;2023-09-19T11:56:16;23.00;92.00
25440;DHT22;13365;52.208;5.488;2023-09-19T11:58:43;23.10;91.20
25440;DHT22;13365;52.208;5.488;2023-09-19T12:01:13;23.10;90.80
25440;DHT22;13365;52.208;5.488;2023-09-19T12:03:42;23.20;92.00
25440;DHT22;13365;52.208;5.488;2023-09-19T12:06:16;23.20;91.10
25440;DHT22;13365;52.208;5.488;2023-09-19T12:08:43;23.30;90.80
25440;DHT22;13365;52.208;5.488;2023-09-19T12:11:16;23.20;90.40
25440;DHT22;13365;52.208;5.488;2023-09-19T12:13:45;22.90;91.00
25440;DHT22;13365;52.208;5.488;2023-09-19T12:16:15;22.90;91.70
25440;DHT22;13365;52.208;5.488;2023-09-19T12:18:41;22.80;91.00
25440;DHT22;13365;52.208;5.488;2023-09-19T12:21:29;22.90;91.60
25440;DHT22;13365;52.208;5.488;2023-09-19T12:26:23;22.90;90.70
25440;DHT22;13365;52.208;5.488;2023-09-19T12:28:49;22.70;90.40
25440;DHT22;13365;52.208;5.488;2023-09-19T12:31:18;22.50;91.00
25440;DHT22;13365;52.208;5.488;2023-09-19T12:33:45;22.50;91.80
25440;DHT22;13365;52.208;5.488;2023-09-19T12:36:23;22.60;91.00
25440;DHT22;13365;52.208;5.488;2023-09-19T12:38:55;22.60;91.30
25440;DHT22;13365;52.208;5.488;2023-09-19T12:41:21;22.90;91.50
25440;DHT22;13365;52.208;5.488;2023-09-19T12:43:48;22.90;91.00
25440;DHT22;13365;52.208;5.488;2023-09-19T12:46:13;23.00;91.30
25440;DHT22;13365;52.208;5.488;2023-09-19T12:48:41;22.90;91.20
25440;DHT22;13365;52.208;5.488;2023-09-19T12:51:11;22.90;91.00
25440;DHT22;13365;52.208;5.488;2023-09-19T12:53:46;22.80;90.50
25440;DHT22;13365;52.208;5.488;2023-09-19T12:56:14;22.60;91.50
25440;DHT22;13365;52.208;5.488;2023-09-19T12:58:57;22.40;91.30
25440;DHT22;13365;52.208;5.488;2023-09-19T13:01:26;22.30;91.90
25440;DHT22;13365;52.208;5.488;2023-09-19T13:04:19;22.20;92.40
25440;DHT22;13365;52.208;5.488;2023-09-19T13:06:49;22.30;92.50
25440;DHT22;13365;52.208;5.488;2023-09-19T13:09:19;22.30;91.80
25440;DHT22;13365;52.208;5.488;2023-09-19T13:11:59;22.20;92.30
25440;DHT22;13365;52.208;5.488;2023-09-19T13:14:26;22.40;92.10
25440;DHT22;13365;52.208;5.488;2023-09-19T13:17:07;22.60;91.90
25440;DHT22;13365;52.208;5.488;2023-09-19T13:19:45;22.60;92.20
25440;DHT22;13365;52.208;5.488;2023-09-19T13:22:39;22.60;92.50
25440;DHT22;13365;52.208;5.488;2023-09-19T13:25:08;22.60;92.00
25440;DHT22;13365;52.208;5.488;2023-09-19T13:27:39;22.80;91.20
25440;DHT22;13365;52.208;5.488;2023-09-19T13:30:05;22.80;91.60
25440;DHT22;13365;52.208;5.488;2023-09-19T13:32:32;22.70;92.30
25440;DHT22;13365;52.208;5.488;2023-09-19T13:34:58;22.50;92.30
25440;DHT22;13365;52.208;5.488;2023-09-19T13:37:24;22.50;92.70
25440;DHT22;13365;52.208;5.488;2023-09-19T13:39:49;22.70;92.50
25440;DHT22;13365;52.208;5.488;2023-09-19T13:42:15;22.80;92.80
25440;DHT22;13365;52.208;5.488;2023-09-19T13:44:41;22.80;92.60
25440;DHT22;13365;52.208;5.488;2023-09-19T13:47:07;22.80;92.10
25440;DHT22;13365;52.208;5.488;2023-09-19T13:49:36;22.80;92.60
25440;DHT22;13365;52.208;5.488;2023-09-19T13:52:02;23.00;92.40
25440;DHT22;13365;52.208;5.488;2023-09-19T13:54:31;23.10;91.70
25440;DHT22;13365;52.208;5.488;2023-09-19T13:56:57;23.20;91.80
25440;DHT22;13365;52.208;5.488;2023-09-19T13:59:22;23.30;91.30
25440;DHT22;13365;52.208;5.488;2023-09-19T14:01:49;23.30;90.90
25440;DHT22;13365;52.208;5.488;2023-09-19T14:04:16;23.30;90.80
25440;DHT22;13365;52.208;5.488;2023-09-19T14:06:42;23.10;91.00
25440;DHT22;13365;52.208;5.488;2023-09-19T14:09:08;23.10;91.20
25440;DHT22;13365;52.208;5.488;2023-09-19T14:11:34;23.00;91.00
25440;DHT22;13365;52.208;5.488;2023-09-19T14:14:00;22.90;91.60
25440;DHT22;13365;52.208;5.488;2023-09-19T14:16:25;22.80;91.30
25440;DHT22;13365;52.208;5.488;2023-09-19T14:18:55;22.70;91.40
25440;DHT22;13365;52.208;5.488;2023-09-19T14:21:20;22.70;91.70
25440;DHT22;13365;52.208;5.488;2023-09-19T14:23:46;22.60;92.10
25440;DHT22;13365;52.208;5.488;2023-09-19T14:26:12;22.70;91.70
25440;DHT22;13365;52.208;5.488;2023-09-19T14:28:37;22.70;91.80
25440;DHT22;13365;52.208;5.488;2023-09-19T14:31:11;22.80;91.50
25440;DHT22;13365;52.208;5.488;2023-09-19T14:33:37;22.70;92.20
25440;DHT22;13365;52.208;5.488;2023-09-19T14:36:08;22.50;92.20
25440;DHT22;13365;52.208;5.488;2023-09-19T14:38:35;22.30;92.40
25440;DHT22;13365;52.208;5.488;2023-09-19T14:41:02;22.20;92.80
25440;DHT22;13365;52.208;5.488;2023-09-19T14:43:28;22.10;92.40
25440;DHT22;13365;52.208;5.488;2023-09-19T14:45:56;21.90;93.40
25440;DHT22;13365;52.208;5.488;2023-09-19T14:48:22;21.90;93.60
25440;DHT22;13365;52.208;5.488;2023-09-19T14:50:52;21.80;93.30
25440;DHT22;13365;52.208;5.488;2023-09-19T14:53:17;21.70;93.80
25440;DHT22;13365;52.208;5.488;2023-09-19T14:55:44;21.90;94.10
25440;DHT22;13365;52.208;5.488;2023-09-19T14:58:10;21.90;92.90
25440;DHT22;13365;52.208;5.488;2023-09-19T15:00:37;21.90;93.00
25440;DHT22;13365;52.208;5.488;2023-09-19T15:03:03;21.80;93.10
25440;DHT22;13365;52.208;5.488;2023-09-19T15:05:29;21.80;92.80
25440;DHT22;13365;52.208;5.488;2023-09-19T15:07:57;21.70;93.20
25440;DHT22;13365;52.208;5.488;2023-09-19T15:10:23;21.90;93.30
25440;DHT22;13365;52.208;5.488;2023-09-19T15:12:50;21.80;93.40
25440;DHT22;13365;52.208;5.488;2023-09-19T15:15:16;21.90;94.10
25440;DHT22;13365;52.208;5.488;2023-09-19T15:17:42;22.10;93.60
25440;DHT22;13365;52.208;5.488;2023-09-19T15:20:07;22.00;93.70
25440;DHT22;13365;52.208;5.488;2023-09-19T15:22:34;22.00;93.30
25440;DHT22;13365;52.208;5.488;2023-09-19T15:25:00;22.10;93.30
25440;DHT22;13365;52.208;5.488;2023-09-19T15:27:27;22.00;93.80
25440;DHT22;13365;52.208;5.488;2023-09-19T15:29:53;22.10;94.00
25440;DHT22;13365;52.208;5.488;2023-09-19T15:32:18;22.30;93.80
25440;DHT22;13365;52.208;5.488;2023-09-19T15:34:44;22.40;93.70
25440;DHT22;13365;52.208;5.488;2023-09-19T15:37:09;22.20;93.40
25440;DHT22;13365;52.208;5.488;2023-09-19T15:39:35;21.90;93.80
25440;DHT22;13365;52.208;5.488;2023-09-19T15:42:02;21.90;93.80
25440;DHT22;13365;52.208;5.488;2023-09-19T15:44:28;22.00;93.40
25440;DHT22;13365;52.208;5.488;2023-09-19T15:46:53;21.90;93.70
25440;DHT22;13365;52.208;5.488;2023-09-19T15:49:19;22.00;94.10
25440;DHT22;13365;52.208;5.488;2023-09-19T15:51:45;21.90;93.60
25440;DHT22;13365;52.208;5.488;2023-09-19T15:54:14;21.80;93.70
25440;DHT22;13365;52.208;5.488;2023-09-19T15:56:44;21.80;94.40
25440;DHT22;13365;52.208;5.488;2023-09-19T15:59:10;21.80;94.30
25440;DHT22;13365;52.208;5.488;2023-09-19T16:01:41;21.70;94.40
25440;DHT22;13365;52.208;5.488;2023-09-19T16:04:08;21.80;94.20
25440;DHT22;13365;52.208;5.488;2023-09-19T16:06:37;21.70;94.70
25440;DHT22;13365;52.208;5.488;2023-09-19T16:09:04;21.70;95.10
25440;DHT22;13365;52.208;5.488;2023-09-19T16:11:32;21.70;94.70
25440;DHT22;13365;52.208;5.488;2023-09-19T16:13:57;21.40;94.80